DTMB/MIR METAR and TAF weather

Enter ICAO airport designator
Station Type Date Time Source
DTMB METAR 2018/07/21 04:00 UTC NOAA

DTMB 210400Z 12005KT 8000 NSC 26/20 Q1012


Station Type Date Time Source
DTMB Decoded METAR 2018/07/21 04:00 UTC NOAA

Habib Bourguiba , Tunisia (DTMB) 35-46N 010-45E
Jul 21, 2018 - 12:00 AM EDT / 2018.07.21 0400 UTC
Wind: from the ESE (120 degrees) at 6 MPH (5 KT):0
Visibility: 4 mile(s):0
Temperature: 78 F (26 C)
Dew Point: 68 F (20 C)
Relative Humidity: 69%
Pressure (altimeter): 29.88 in. Hg (1012 hPa)
ob: DTMB 210400Z 12005KT 8000 NSC 26/20 Q1012
cycle: 4

Station Type Date Time Source
DTMB TAF 2018/07/20 18:06 UTC NOAA

TAF TAF DTMB 201756Z 2018/2118 10010KT 8000 NSC
BECMG 2019/2021 18010KT


Example: see airport list